sensor_id;sensor_type;location;lat;lon;timestamp;pressure;altitude;pressure_sealevel;temperature;humidity
46211;BME280;52144;48.040;-1.594;2023-03-15T00:02:04;101327.63;;;6.99;92.11
46211;BME280;52144;48.040;-1.594;2023-03-15T00:04:32;101330.00;;;7.13;92.66
46211;BME280;52144;48.040;-1.594;2023-03-15T00:07:00;101325.56;;;7.12;90.41
46211;BME280;52144;48.040;-1.594;2023-03-15T00:09:30;101326.44;;;7.12;91.94
46211;BME280;52144;48.040;-1.594;2023-03-15T00:11:57;101330.06;;;7.08;91.31
46211;BME280;52144;48.040;-1.594;2023-03-15T00:14:25;101326.66;;;7.03;92.35
46211;BME280;52144;48.040;-1.594;2023-03-15T00:16:53;101322.34;;;6.99;91.74
46211;BME280;52144;48.040;-1.594;2023-03-15T00:19:21;101313.53;;;6.97;91.19
46211;BME280;52144;48.040;-1.594;2023-03-15T00:21:49;101316.19;;;6.97;93.10
46211;BME280;52144;48.040;-1.594;2023-03-15T00:24:16;101307.91;;;7.12;92.22
46211;BME280;52144;48.040;-1.594;2023-03-15T00:26:45;101305.09;;;7.18;90.39
46211;BME280;52144;48.040;-1.594;2023-03-15T00:29:13;101301.44;;;7.24;92.01
46211;BME280;52144;48.040;-1.594;2023-03-15T00:31:41;101300.88;;;7.49;91.27
46211;BME280;52144;48.040;-1.594;2023-03-15T00:34:09;101304.56;;;7.43;91.01
46211;BME280;52144;48.040;-1.594;2023-03-15T00:36:39;101308.06;;;7.45;90.27
46211;BME280;52144;48.040;-1.594;2023-03-15T00:39:09;101301.72;;;7.12;88.20
46211;BME280;52144;48.040;-1.594;2023-03-15T00:41:37;101302.03;;;6.98;89.70
46211;BME280;52144;48.040;-1.594;2023-03-15T00:44:06;101305.72;;;6.91;90.71
46211;BME280;52144;48.040;-1.594;2023-03-15T00:46:33;101305.72;;;6.91;91.48
46211;BME280;52144;48.040;-1.594;2023-03-15T00:49:02;101299.47;;;6.95;90.84
46211;BME280;52144;48.040;-1.594;2023-03-15T00:51:30;101300.19;;;7.01;91.27
46211;BME280;52144;48.040;-1.594;2023-03-15T00:53:59;101293.31;;;6.93;91.60
46211;BME280;52144;48.040;-1.594;2023-03-15T00:56:27;101298.88;;;6.80;92.08
46211;BME280;52144;48.040;-1.594;2023-03-15T00:58:56;101297.91;;;6.85;92.98
46211;BME280;52144;48.040;-1.594;2023-03-15T01:01:28;101300.44;;;6.91;92.58
46211;BME280;52144;48.040;-1.594;2023-03-15T01:03:56;101307.28;;;7.01;92.50
46211;BME280;52144;48.040;-1.594;2023-03-15T01:06:26;101311.34;;;6.75;91.35
46211;BME280;52144;48.040;-1.594;2023-03-15T01:08:54;101313.50;;;6.55;93.11
46211;BME280;52144;48.040;-1.594;2023-03-15T01:11:24;101309.31;;;6.43;94.64
46211;BME280;52144;48.040;-1.594;2023-03-15T01:13:54;101320.81;;;6.43;94.51
46211;BME280;52144;48.040;-1.594;2023-03-15T01:16:23;101326.09;;;6.43;94.24
46211;BME280;52144;48.040;-1.594;2023-03-15T01:18:52;101325.88;;;6.56;93.80
46211;BME280;52144;48.040;-1.594;2023-03-15T01:21:21;101323.97;;;6.61;93.94
46211;BME280;52144;48.040;-1.594;2023-03-15T01:23:50;101326.63;;;6.61;93.00
46211;BME280;52144;48.040;-1.594;2023-03-15T01:26:17;101334.53;;;6.64;92.37
46211;BME280;52144;48.040;-1.594;2023-03-15T01:28:45;101332.75;;;6.65;92.00
46211;BME280;52144;48.040;-1.594;2023-03-15T01:31:17;101325.88;;;6.54;92.20
46211;BME280;52144;48.040;-1.594;2023-03-15T01:33:45;101330.38;;;6.49;92.63
46211;BME280;52144;48.040;-1.594;2023-03-15T01:36:15;101335.63;;;6.54;92.69
46211;BME280;52144;48.040;-1.594;2023-03-15T01:38:43;101332.03;;;6.56;93.77
46211;BME280;52144;48.040;-1.594;2023-03-15T01:41:12;101336.34;;;6.62;94.14
46211;BME280;52144;48.040;-1.594;2023-03-15T01:43:40;101331.19;;;6.54;93.41
46211;BME280;52144;48.040;-1.594;2023-03-15T01:46:30;101332.66;;;6.69;92.99
46211;BME280;52144;48.040;-1.594;2023-03-15T01:49:05;101333.38;;;6.77;93.14
46211;BME280;52144;48.040;-1.594;2023-03-15T01:51:37;101345.00;;;6.70;92.44
46211;BME280;52144;48.040;-1.594;2023-03-15T01:54:10;101339.00;;;6.60;92.62
46211;BME280;52144;48.040;-1.594;2023-03-15T01:56:44;101344.47;;;6.51;92.63
46211;BME280;52144;48.040;-1.594;2023-03-15T01:59:16;101339.09;;;6.56;94.27
46211;BME280;52144;48.040;-1.594;2023-03-15T02:01:46;101338.13;;;6.60;94.65
46211;BME280;52144;48.040;-1.594;2023-03-15T02:04:18;101329.09;;;6.70;95.00
46211;BME280;52144;48.040;-1.594;2023-03-15T02:06:55;101340.53;;;6.74;93.88
46211;BME280;52144;48.040;-1.594;2023-03-15T02:09:31;101334.44;;;6.67;93.60
46211;BME280;52144;48.040;-1.594;2023-03-15T02:12:03;101334.53;;;6.64;94.82
46211;BME280;52144;48.040;-1.594;2023-03-15T02:14:32;101337.31;;;6.56;94.32
46211;BME280;52144;48.040;-1.594;2023-03-15T02:17:00;101334.56;;;6.61;94.88
46211;BME280;52144;48.040;-1.594;2023-03-15T02:19:35;101326.59;;;6.64;95.45
46211;BME280;52144;48.040;-1.594;2023-03-15T02:22:18;101325.66;;;6.65;94.81
46211;BME280;52144;48.040;-1.594;2023-03-15T02:24:54;101334.66;;;6.58;94.40
46211;BME280;52144;48.040;-1.594;2023-03-15T02:27:27;101327.72;;;6.51;94.39
46211;BME280;52144;48.040;-1.594;2023-03-15T02:29:57;101333.94;;;6.50;95.54
46211;BME280;52144;48.040;-1.594;2023-03-15T02:32:29;101329.41;;;6.55;95.37
46211;BME280;52144;48.040;-1.594;2023-03-15T02:34:57;101334.78;;;6.52;95.34
46211;BME280;52144;48.040;-1.594;2023-03-15T02:37:24;101326.06;;;6.45;96.83
46211;BME280;52144;48.040;-1.594;2023-03-15T02:39:52;101321.94;;;6.30;94.60
46211;BME280;52144;48.040;-1.594;2023-03-15T02:42:20;101323.75;;;6.27;96.85
46211;BME280;52144;48.040;-1.594;2023-03-15T02:44:51;101330.69;;;6.34;97.20
46211;BME280;52144;48.040;-1.594;2023-03-15T02:47:26;101328.78;;;6.40;97.02
46211;BME280;52144;48.040;-1.594;2023-03-15T02:49:54;101326.72;;;6.58;97.26
46211;BME280;52144;48.040;-1.594;2023-03-15T02:52:22;101329.94;;;6.74;96.15
46211;BME280;52144;48.040;-1.594;2023-03-15T02:54:50;101322.06;;;6.69;94.67
46211;BME280;52144;48.040;-1.594;2023-03-15T02:57:19;101323.75;;;6.73;94.35
46211;BME280;52144;48.040;-1.594;2023-03-15T02:59:47;101316.72;;;6.72;94.31
46211;BME280;52144;48.040;-1.594;2023-03-15T03:02:17;101308.03;;;6.66;93.97
46211;BME280;52144;48.040;-1.594;2023-03-15T03:04:46;101314.22;;;6.65;95.59
46211;BME280;52144;48.040;-1.594;2023-03-15T03:07:14;101309.97;;;6.56;95.20
46211;BME280;52144;48.040;-1.594;2023-03-15T03:09:42;101316.84;;;6.66;96.29
46211;BME280;52144;48.040;-1.594;2023-03-15T03:12:10;101305.25;;;6.72;97.24
46211;BME280;52144;48.040;-1.594;2023-03-15T03:14:38;101311.38;;;6.74;97.27
46211;BME280;52144;48.040;-1.594;2023-03-15T03:17:08;101311.31;;;6.77;97.30
46211;BME280;52144;48.040;-1.594;2023-03-15T03:19:37;101305.28;;;6.69;97.44
46211;BME280;52144;48.040;-1.594;2023-03-15T03:22:05;101307.84;;;6.73;97.26
46211;BME280;52144;48.040;-1.594;2023-03-15T03:24:33;101304.94;;;6.86;96.24
46211;BME280;52144;48.040;-1.594;2023-03-15T03:27:01;101306.69;;;6.88;95.42
46211;BME280;52144;48.040;-1.594;2023-03-15T03:29:29;101307.78;;;6.76;95.51
46211;BME280;52144;48.040;-1.594;2023-03-15T03:31:57;101307.91;;;6.72;95.63
46211;BME280;52144;48.040;-1.594;2023-03-15T03:34:25;101311.41;;;6.72;94.75
46211;BME280;52144;48.040;-1.594;2023-03-15T03:36:55;101307.06;;;6.70;93.24
46211;BME280;52144;48.040;-1.594;2023-03-15T03:39:22;101304.31;;;6.74;93.13
46211;BME280;52144;48.040;-1.594;2023-03-15T03:41:50;101305.25;;;6.72;94.00
46211;BME280;52144;48.040;-1.594;2023-03-15T03:44:18;101300.94;;;6.66;94.75
46211;BME280;52144;48.040;-1.594;2023-03-15T03:46:46;101301.34;;;6.45;96.53
46211;BME280;52144;48.040;-1.594;2023-03-15T03:49:13;101294.25;;;6.47;97.92
46211;BME280;52144;48.040;-1.594;2023-03-15T03:51:41;101290.59;;;6.54;97.44
46211;BME280;52144;48.040;-1.594;2023-03-15T03:54:10;101286.84;;;6.64;96.43
46211;BME280;52144;48.040;-1.594;2023-03-15T03:56:38;101288.53;;;6.70;95.85
46211;BME280;52144;48.040;-1.594;2023-03-15T03:59:06;101287.56;;;6.74;93.64
46211;BME280;52144;48.040;-1.594;2023-03-15T04:01:33;101293.28;;;6.52;93.26
46211;BME280;52144;48.040;-1.594;2023-03-15T04:04:01;101288.03;;;6.49;93.76
46211;BME280;52144;48.040;-1.594;2023-03-15T04:06:29;101295.38;;;6.35;93.82
46211;BME280;52144;48.040;-1.594;2023-03-15T04:08:57;101287.63;;;6.24;94.75
46211;BME280;52144;48.040;-1.594;2023-03-15T04:11:26;101278.03;;;6.18;95.20
46211;BME280;52144;48.040;-1.594;2023-03-15T04:13:54;101278.97;;;6.16;96.37
46211;BME280;52144;48.040;-1.594;2023-03-15T04:16:22;101267.16;;;6.34;97.10
46211;BME280;52144;48.040;-1.594;2023-03-15T04:18:50;101271.47;;;6.39;95.79
46211;BME280;52144;48.040;-1.594;2023-03-15T04:21:22;101270.50;;;6.43;94.10
46211;BME280;52144;48.040;-1.594;2023-03-15T04:23:49;101271.84;;;6.19;93.81
46211;BME280;52144;48.040;-1.594;2023-03-15T04:26:17;101268.41;;;6.14;95.18
46211;BME280;52144;48.040;-1.594;2023-03-15T04:28:46;101269.31;;;6.15;95.38
46211;BME280;52144;48.040;-1.594;2023-03-15T04:31:14;101273.75;;;6.13;96.07
46211;BME280;52144;48.040;-1.594;2023-03-15T04:33:42;101276.56;;;6.02;95.68
46211;BME280;52144;48.040;-1.594;2023-03-15T04:36:10;101277.59;;;5.92;95.67
46211;BME280;52144;48.040;-1.594;2023-03-15T04:38:44;101284.03;;;5.77;96.42
46211;BME280;52144;48.040;-1.594;2023-03-15T04:41:13;101288.59;;;5.67;97.47
46211;BME280;52144;48.040;-1.594;2023-03-15T04:43:41;101290.47;;;5.60;98.35
46211;BME280;52144;48.040;-1.594;2023-03-15T04:46:10;101291.50;;;5.52;97.41
46211;BME280;52144;48.040;-1.594;2023-03-15T04:48:38;101309.94;;;5.56;98.64
46211;BME280;52144;48.040;-1.594;2023-03-15T04:51:07;101309.19;;;5.48;96.38
46211;BME280;52144;48.040;-1.594;2023-03-15T04:53:34;101317.22;;;5.39;97.56
46211;BME280;52144;48.040;-1.594;2023-03-15T04:56:05;101324.28;;;5.40;97.96
46211;BME280;52144;48.040;-1.594;2023-03-15T04:58:32;101323.38;;;5.41;96.89
46211;BME280;52144;48.040;-1.594;2023-03-15T05:01:00;101321.75;;;5.32;97.93
46211;BME280;52144;48.040;-1.594;2023-03-15T05:03:29;101321.84;;;5.26;100.00
46211;BME280;52144;48.040;-1.594;2023-03-15T05:05:57;101326.09;;;5.35;99.26
46211;BME280;52144;48.040;-1.594;2023-03-15T05:08:31;101324.47;;;5.28;99.88
46211;BME280;52144;48.040;-1.594;2023-03-15T05:10:59;101332.19;;;5.41;99.49
46211;BME280;52144;48.040;-1.594;2023-03-15T05:13:26;101331.31;;;5.41;97.42
46211;BME280;52144;48.040;-1.594;2023-03-15T05:15:54;101326.16;;;5.32;96.47
46211;BME280;52144;48.040;-1.594;2023-03-15T05:18:22;101334.19;;;5.26;95.95
46211;BME280;52144;48.040;-1.594;2023-03-15T05:20:51;101334.94;;;5.34;97.34
46211;BME280;52144;48.040;-1.594;2023-03-15T05:23:21;101330.50;;;5.37;97.48
46211;BME280;52144;48.040;-1.594;2023-03-15T05:25:50;101338.28;;;5.47;98.08
46211;BME280;52144;48.040;-1.594;2023-03-15T05:28:20;101336.50;;;5.47;95.23
46211;BME280;52144;48.040;-1.594;2023-03-15T05:30:48;101331.09;;;5.55;97.22
46211;BME280;52144;48.040;-1.594;2023-03-15T05:33:17;101328.22;;;5.70;95.25
46211;BME280;52144;48.040;-1.594;2023-03-15T05:35:46;101345.91;;;5.67;94.36
46211;BME280;52144;48.040;-1.594;2023-03-15T05:38:15;101344.25;;;5.59;94.86
46211;BME280;52144;48.040;-1.594;2023-03-15T05:40:44;101352.16;;;5.62;94.86
46211;BME280;52144;48.040;-1.594;2023-03-15T05:43:12;101339.88;;;5.57;93.65
46211;BME280;52144;48.040;-1.594;2023-03-15T05:45:40;101355.25;;;5.30;93.08
46211;BME280;52144;48.040;-1.594;2023-03-15T05:48:10;101357.28;;;5.10;94.22
46211;BME280;52144;48.040;-1.594;2023-03-15T05:50:37;101356.81;;;4.78;95.63
46211;BME280;52144;48.040;-1.594;2023-03-15T05:53:06;101360.22;;;4.87;97.42
46211;BME280;52144;48.040;-1.594;2023-03-15T05:55:35;101367.00;;;5.09;96.77
46211;BME280;52144;48.040;-1.594;2023-03-15T05:58:04;101365.22;;;5.08;93.83
46211;BME280;52144;48.040;-1.594;2023-03-15T06:00:32;101367.00;;;5.08;93.01
46211;BME280;52144;48.040;-1.594;2023-03-15T06:02:59;101359.91;;;5.11;92.60
46211;BME280;52144;48.040;-1.594;2023-03-15T06:05:28;101366.91;;;5.15;93.15
46211;BME280;52144;48.040;-1.594;2023-03-15T06:07:55;101367.94;;;5.03;92.76
46211;BME280;52144;48.040;-1.594;2023-03-15T06:10:23;101361.81;;;4.98;95.46
46211;BME280;52144;48.040;-1.594;2023-03-15T06:12:52;101365.13;;;5.17;96.73
46211;BME280;52144;48.040;-1.594;2023-03-15T06:15:20;101366.59;;;5.37;95.80
46211;BME280;52144;48.040;-1.594;2023-03-15T06:17:48;101360.34;;;5.44;94.38
46211;BME280;52144;48.040;-1.594;2023-03-15T06:20:17;101352.50;;;5.38;93.66
46211;BME280;52144;48.040;-1.594;2023-03-15T06:22:44;101355.22;;;5.33;95.36
46211;BME280;52144;48.040;-1.594;2023-03-15T06:25:12;101328.88;;;5.27;97.26
46211;BME280;52144;48.040;-1.594;2023-03-15T06:27:40;101336.56;;;5.42;100.00
46211;BME280;52144;48.040;-1.594;2023-03-15T06:30:10;101340.78;;;5.56;98.03
46211;BME280;52144;48.040;-1.594;2023-03-15T06:32:41;101335.56;;;5.51;95.75
46211;BME280;52144;48.040;-1.594;2023-03-15T06:35:09;101335.81;;;5.36;96.24
46211;BME280;52144;48.040;-1.594;2023-03-15T06:37:36;101329.56;;;5.40;95.79
46211;BME280;52144;48.040;-1.594;2023-03-15T06:40:05;101332.03;;;5.51;95.36
46211;BME280;52144;48.040;-1.594;2023-03-15T06:42:34;101331.03;;;5.59;94.76
46211;BME280;52144;48.040;-1.594;2023-03-15T06:45:02;101336.97;;;5.74;94.08
46211;BME280;52144;48.040;-1.594;2023-03-15T06:47:32;101336.13;;;5.72;92.55
46211;BME280;52144;48.040;-1.594;2023-03-15T06:50:00;101328.47;;;5.55;93.89
46211;BME280;52144;48.040;-1.594;2023-03-15T06:52:27;101329.88;;;5.18;95.45
46211;BME280;52144;48.040;-1.594;2023-03-15T06:54:55;101342.09;;;5.27;98.85
46211;BME280;52144;48.040;-1.594;2023-03-15T06:57:23;101342.72;;;5.45;97.79
46211;BME280;52144;48.040;-1.594;2023-03-15T06:59:51;101354.88;;;5.56;95.86
46211;BME280;52144;48.040;-1.594;2023-03-15T07:02:19;101346.00;;;5.62;98.06
46211;BME280;52144;48.040;-1.594;2023-03-15T07:04:48;101345.81;;;5.71;96.70
46211;BME280;52144;48.040;-1.594;2023-03-15T07:07:16;101354.59;;;5.75;96.57
46211;BME280;52144;48.040;-1.594;2023-03-15T07:09:44;101345.66;;;5.82;96.36
46211;BME280;52144;48.040;-1.594;2023-03-15T07:12:12;101357.88;;;5.89;97.01
46211;BME280;52144;48.040;-1.594;2023-03-15T07:14:40;101358.00;;;5.83;96.33
46211;BME280;52144;48.040;-1.594;2023-03-15T07:17:08;101366.78;;;5.85;98.45
46211;BME280;52144;48.040;-1.594;2023-03-15T07:19:36;101360.47;;;5.95;97.48
46211;BME280;52144;48.040;-1.594;2023-03-15T07:22:17;101363.59;;;6.19;97.87
46211;BME280;52144;48.040;-1.594;2023-03-15T07:24:45;101360.66;;;6.34;96.46
46211;BME280;52144;48.040;-1.594;2023-03-15T07:27:12;101362.88;;;6.59;95.97
46211;BME280;52144;48.040;-1.594;2023-03-15T07:29:44;101360.81;;;6.73;94.48
46211;BME280;52144;48.040;-1.594;2023-03-15T07:32:12;101368.41;;;6.92;94.21
46211;BME280;52144;48.040;-1.594;2023-03-15T07:34:40;101366.19;;;7.14;93.64
46211;BME280;52144;48.040;-1.594;2023-03-15T07:37:07;101363.38;;;7.21;92.97
46211;BME280;52144;48.040;-1.594;2023-03-15T07:39:37;101361.59;;;7.22;94.10
46211;BME280;52144;48.040;-1.594;2023-03-15T07:42:04;101368.25;;;7.40;94.32
46211;BME280;52144;48.040;-1.594;2023-03-15T07:44:33;101369.00;;;7.47;92.65
46211;BME280;52144;48.040;-1.594;2023-03-15T07:47:01;101366.25;;;7.51;93.30
46211;BME280;52144;48.040;-1.594;2023-03-15T07:49:28;101380.50;;;7.47;94.16
46211;BME280;52144;48.040;-1.594;2023-03-15T07:51:57;101374.97;;;7.56;94.28
46211;BME280;52144;48.040;-1.594;2023-03-15T07:54:25;101379.88;;;7.73;93.85
46211;BME280;52144;48.040;-1.594;2023-03-15T07:56:56;101379.78;;;7.78;93.78
46211;BME280;52144;48.040;-1.594;2023-03-15T07:59:24;101368.38;;;7.74;94.06
46211;BME280;52144;48.040;-1.594;2023-03-15T08:01:52;101374.53;;;7.75;95.37
46211;BME280;52144;48.040;-1.594;2023-03-15T08:04:20;101370.09;;;7.75;93.51
46211;BME280;52144;48.040;-1.594;2023-03-15T08:06:47;101369.84;;;7.86;96.10
46211;BME280;52144;48.040;-1.594;2023-03-15T08:09:15;101367.06;;;7.92;95.73
46211;BME280;52144;48.040;-1.594;2023-03-15T08:11:43;101357.03;;;8.03;94.18
46211;BME280;52144;48.040;-1.594;2023-03-15T08:14:12;101351.50;;;8.13;92.92
46211;BME280;52144;48.040;-1.594;2023-03-15T08:16:40;101349.31;;;8.29;92.33
46211;BME280;52144;48.040;-1.594;2023-03-15T08:19:08;101360.50;;;8.40;94.45
46211;BME280;52144;48.040;-1.594;2023-03-15T08:21:35;101367.16;;;8.58;93.48
46211;BME280;52144;48.040;-1.594;2023-03-15T08:24:04;101367.75;;;8.69;91.83
46211;BME280;52144;48.040;-1.594;2023-03-15T08:26:31;101364.63;;;8.84;91.19
46211;BME280;52144;48.040;-1.594;2023-03-15T08:28:59;101360.63;;;9.01;89.63
46211;BME280;52144;48.040;-1.594;2023-03-15T08:31:28;101358.44;;;9.15;89.98
46211;BME280;52144;48.040;-1.594;2023-03-15T08:33:56;101366.88;;;9.30;90.28
46211;BME280;52144;48.040;-1.594;2023-03-15T08:36:24;101363.53;;;9.53;88.90
46211;BME280;52144;48.040;-1.594;2023-03-15T08:38:52;101356.59;;;9.75;88.17
46211;BME280;52144;48.040;-1.594;2023-03-15T08:41:19;101360.75;;;10.11;86.11
46211;BME280;52144;48.040;-1.594;2023-03-15T08:43:47;101354.84;;;10.28;85.64
46211;BME280;52144;48.040;-1.594;2023-03-15T08:46:15;101365.16;;;10.38;86.54
46211;BME280;52144;48.040;-1.594;2023-03-15T08:48:44;101357.88;;;10.43;85.67
46211;BME280;52144;48.040;-1.594;2023-03-15T08:51:12;101353.88;;;10.57;85.06
46211;BME280;52144;48.040;-1.594;2023-03-15T08:53:40;101357.50;;;10.54;84.66
46211;BME280;52144;48.040;-1.594;2023-03-15T08:56:08;101358.84;;;10.66;84.68
46211;BME280;52144;48.040;-1.594;2023-03-15T08:58:36;101351.06;;;10.60;84.32
46211;BME280;52144;48.040;-1.594;2023-03-15T09:01:04;101355.38;;;10.64;86.08
46211;BME280;52144;48.040;-1.594;2023-03-15T09:03:32;101350.84;;;10.66;86.36
46211;BME280;52144;48.040;-1.594;2023-03-15T09:06:01;101355.59;;;10.58;87.60
46211;BME280;52144;48.040;-1.594;2023-03-15T09:08:29;101348.44;;;10.83;86.11
46211;BME280;52144;48.040;-1.594;2023-03-15T09:10:58;101346.88;;;10.78;85.56
46211;BME280;52144;48.040;-1.594;2023-03-15T09:13:27;101350.75;;;10.93;83.30
46211;BME280;52144;48.040;-1.594;2023-03-15T09:15:56;101354.66;;;10.84;85.19
46211;BME280;52144;48.040;-1.594;2023-03-15T09:18:24;101361.72;;;11.09;81.55
46211;BME280;52144;48.040;-1.594;2023-03-15T09:20:51;101362.78;;;11.28;78.75
46211;BME280;52144;48.040;-1.594;2023-03-15T09:23:21;101365.97;;;11.14;78.34
46211;BME280;52144;48.040;-1.594;2023-03-15T09:25:49;101377.34;;;11.19;77.19
46211;BME280;52144;48.040;-1.594;2023-03-15T09:28:16;101363.59;;;11.07;76.66
46211;BME280;52144;48.040;-1.594;2023-03-15T09:30:44;101373.44;;;11.28;78.41
46211;BME280;52144;48.040;-1.594;2023-03-15T09:33:12;101371.72;;;11.49;78.57
46211;BME280;52144;48.040;-1.594;2023-03-15T09:35:40;101374.50;;;11.24;79.45
46211;BME280;52144;48.040;-1.594;2023-03-15T09:38:08;101366.03;;;11.58;77.52
46211;BME280;52144;48.040;-1.594;2023-03-15T09:40:40;101372.72;;;11.47;77.65
46211;BME280;52144;48.040;-1.594;2023-03-15T09:43:36;101373.09;;;11.59;77.32
46211;BME280;52144;48.040;-1.594;2023-03-15T09:46:17;101374.78;;;11.40;77.83
46211;BME280;52144;48.040;-1.594;2023-03-15T09:48:51;101388.97;;;11.40;78.57
46211;BME280;52144;48.040;-1.594;2023-03-15T09:51:29;101393.97;;;11.72;78.58
46211;BME280;52144;48.040;-1.594;2023-03-15T09:54:03;101397.28;;;11.56;76.49
46211;BME280;52144;48.040;-1.594;2023-03-15T09:56:35;101395.88;;;11.92;75.21
46211;BME280;52144;48.040;-1.594;2023-03-15T09:59:04;101396.28;;;11.81;78.00
46211;BME280;52144;48.040;-1.594;2023-03-15T10:01:35;101399.72;;;12.07;75.25
46211;BME280;52144;48.040;-1.594;2023-03-15T10:04:10;101397.41;;;11.75;76.17
46211;BME280;52144;48.040;-1.594;2023-03-15T10:06:44;101385.81;;;12.61;71.83
46211;BME280;52144;48.040;-1.594;2023-03-15T10:09:18;101390.88;;;12.68;70.51
46211;BME280;52144;48.040;-1.594;2023-03-15T10:11:56;101379.41;;;12.02;75.26
46211;BME280;52144;48.040;-1.594;2023-03-15T10:14:34;101375.88;;;12.44;72.63
46211;BME280;52144;48.040;-1.594;2023-03-15T10:17:10;101370.13;;;12.54;70.65
46211;BME280;52144;48.040;-1.594;2023-03-15T10:19:46;101384.00;;;12.82;71.40
46211;BME280;52144;48.040;-1.594;2023-03-15T10:22:22;101388.28;;;12.87;70.57
46211;BME280;52144;48.040;-1.594;2023-03-15T10:24:55;101392.06;;;12.62;70.65
46211;BME280;52144;48.040;-1.594;2023-03-15T10:27:31;101398.38;;;12.80;68.01
46211;BME280;52144;48.040;-1.594;2023-03-15T10:30:01;101406.28;;;12.83;71.15
46211;BME280;52144;48.040;-1.594;2023-03-15T10:32:33;101410.88;;;12.38;71.62
46211;BME280;52144;48.040;-1.594;2023-03-15T10:35:11;101405.53;;;12.79;69.60
46211;BME280;52144;48.040;-1.594;2023-03-15T10:37:40;101399.19;;;12.41;72.44
46211;BME280;52144;48.040;-1.594;2023-03-15T10:40:10;101398.19;;;12.64;72.49
46211;BME280;52144;48.040;-1.594;2023-03-15T10:42:44;101399.50;;;12.95;68.89
46211;BME280;52144;48.040;-1.594;2023-03-15T10:45:19;101398.00;;;13.48;66.39
46211;BME280;52144;48.040;-1.594;2023-03-15T10:47:48;101391.25;;;13.77;64.86
46211;BME280;52144;48.040;-1.594;2023-03-15T10:50:27;101382.47;;;13.92;62.58
46211;BME280;52144;48.040;-1.594;2023-03-15T10:52:56;101398.41;;;13.57;63.44
46211;BME280;52144;48.040;-1.594;2023-03-15T10:55:30;101397.41;;;13.79;63.41
46211;BME280;52144;48.040;-1.594;2023-03-15T10:58:13;101393.06;;;13.76;61.67
46211;BME280;52144;48.040;-1.594;2023-03-15T11:00:48;101382.56;;;13.72;63.84
46211;BME280;52144;48.040;-1.594;2023-03-15T11:03:18;101375.38;;;13.91;60.47
46211;BME280;52144;48.040;-1.594;2023-03-15T11:05:49;101377.13;;;13.92;56.77
46211;BME280;52144;48.040;-1.594;2023-03-15T11:08:18;101373.78;;;13.87;58.56
46211;BME280;52144;48.040;-1.594;2023-03-15T11:10:54;101372.97;;;13.49;60.33
46211;BME280;52144;48.040;-1.594;2023-03-15T11:13:26;101368.63;;;13.46;62.56
46211;BME280;52144;48.040;-1.594;2023-03-15T11:15:58;101354.00;;;13.53;62.05
46211;BME280;52144;48.040;-1.594;2023-03-15T11:18:32;101349.25;;;13.77;60.54
46211;BME280;52144;48.040;-1.594;2023-03-15T11:21:03;101350.97;;;14.32;57.53
46211;BME280;52144;48.040;-1.594;2023-03-15T11:23:34;101349.94;;;15.03;57.80
46211;BME280;52144;48.040;-1.594;2023-03-15T11:26:03;101347.13;;;15.38;56.13
46211;BME280;52144;48.040;-1.594;2023-03-15T11:28:35;101343.03;;;14.99;56.64
46211;BME280;52144;48.040;-1.594;2023-03-15T11:31:04;101341.41;;;15.12;57.81
46211;BME280;52144;48.040;-1.594;2023-03-15T11:33:40;101340.00;;;14.54;56.12
46211;BME280;52144;48.040;-1.594;2023-03-15T11:36:14;101336.69;;;14.67;57.59
46211;BME280;52144;48.040;-1.594;2023-03-15T11:38:44;101339.03;;;14.90;57.48
46211;BME280;52144;48.040;-1.594;2023-03-15T11:41:23;101342.94;;;15.00;58.21
46211;BME280;52144;48.040;-1.594;2023-03-15T11:44:01;101327.91;;;14.80;56.91
46211;BME280;52144;48.040;-1.594;2023-03-15T11:46:32;101334.59;;;14.56;57.53
46211;BME280;52144;48.040;-1.594;2023-03-15T11:49:11;101327.63;;;14.52;57.78
46211;BME280;52144;48.040;-1.594;2023-03-15T11:51:41;101315.78;;;14.73;56.83
46211;BME280;52144;48.040;-1.594;2023-03-15T11:54:12;101320.06;;;14.60;56.94
46211;BME280;52144;48.040;-1.594;2023-03-15T11:56:53;101321.13;;;14.73;56.71
46211;BME280;52144;48.040;-1.594;2023-03-15T11:59:27;101317.91;;;14.84;57.38
46211;BME280;52144;48.040;-1.594;2023-03-15T12:01:58;101323.69;;;14.41;59.53
46211;BME280;52144;48.040;-1.594;2023-03-15T12:04:50;101315.13;;;15.01;57.38
46211;BME280;52144;48.040;-1.594;2023-03-15T12:07:30;101306.84;;;14.90;58.28
46211;BME280;52144;48.040;-1.594;2023-03-15T12:10:22;101303.13;;;15.40;56.91
46211;BME280;52144;48.040;-1.594;2023-03-15T12:12:57;101304.78;;;15.11;59.29
46211;BME280;52144;48.040;-1.594;2023-03-15T12:15:47;101303.56;;;15.33;57.73
46211;BME280;52144;48.040;-1.594;2023-03-15T12:18:18;101303.22;;;15.39;57.79
46211;BME280;52144;48.040;-1.594;2023-03-15T12:21:05;101301.13;;;15.76;58.90
46211;BME280;52144;48.040;-1.594;2023-03-15T12:23:39;101300.59;;;15.85;57.72
46211;BME280;52144;48.040;-1.594;2023-03-15T12:26:14;101293.66;;;15.65;57.87
46211;BME280;52144;48.040;-1.594;2023-03-15T12:28:51;101279.00;;;16.17;56.16
46211;BME280;52144;48.040;-1.594;2023-03-15T12:31:21;101276.75;;;16.09;56.26
46211;BME280;52144;48.040;-1.594;2023-03-15T12:33:51;101268.00;;;16.05;57.39
46211;BME280;52144;48.040;-1.594;2023-03-15T12:36:31;101258.38;;;15.87;56.84
46211;BME280;52144;48.040;-1.594;2023-03-15T12:39:19;101257.16;;;15.31;56.77
46211;BME280;52144;48.040;-1.594;2023-03-15T12:41:48;101255.78;;;15.70;57.52
46211;BME280;52144;48.040;-1.594;2023-03-15T12:47:02;101237.06;;;15.84;57.38
46211;BME280;52144;48.040;-1.594;2023-03-15T12:49:33;101239.44;;;16.19;56.67
46211;BME280;52144;48.040;-1.594;2023-03-15T12:52:03;101243.22;;;15.86;56.21
46211;BME280;52144;48.040;-1.594;2023-03-15T12:54:38;101238.97;;;16.12;55.97
46211;BME280;52144;48.040;-1.594;2023-03-15T12:57:10;101235.59;;;16.23;54.92
46211;BME280;52144;48.040;-1.594;2023-03-15T12:59:49;101249.75;;;15.96;55.89
46211;BME280;52144;48.040;-1.594;2023-03-15T13:02:24;101245.06;;;15.70;55.66
46211;BME280;52144;48.040;-1.594;2023-03-15T13:05:16;101253.72;;;16.05;57.24
46211;BME280;52144;48.040;-1.594;2023-03-15T13:07:51;101251.44;;;15.83;55.39